Time;durP1;ratioP1;P1;durP2;ratioP2;P2;SDS_P1;SDS_P2;PMS_P1;PMS_P2;Temp;Humidity;BMP_temperature;BMP_pressure;BME280_temperature;BME280_humidity;BME280_pressure;Samples;Min_cycle;Max_cycle;Signal;HPM_P1;HPM_P2
2023/12/06 00:02:00;;;;;;;0.10;0.10;;;;;;;5.21;71.56;101218.88;5087439;28;20063;-84
2023/12/06 00:04:26;;;;;;;0.20;0.20;;;;;;;5.13;71.62;101224.94;5087970;28;20403;-83
2023/12/06 00:06:52;;;;;;;0.50;0.50;;;;;;;5.22;71.42;101225.91;5086395;28;20063;-83
2023/12/06 00:09:19;;;;;;;0.20;0.20;;;;;;;5.29;71.55;101218.09;5084146;28;20031;-82
2023/12/06 00:11:45;;;;;;;1.38;1.38;;;;;;;5.30;71.27;101229.50;5087970;28;20387;-82
2023/12/06 00:14:11;;;;;;;0.20;0.20;;;;;;;5.27;71.37;101229.44;5090414;28;20035;-82
2023/12/06 00:16:39;;;;;;;1.85;1.52;;;;;;;5.31;71.22;101231.25;5088626;28;20503;-82
2023/12/06 00:19:06;;;;;;;0.45;0.45;;;;;;;5.34;71.36;101223.38;5091469;28;20518;-84
2023/12/06 00:21:32;;;;;;;0.57;0.57;;;;;;;5.35;71.36;101227.78;5091274;28;20032;-83
2023/12/06 00:23:59;;;;;;;0.17;0.17;;;;;;;5.40;71.41;101226.06;5085382;28;20119;-83
2023/12/06 00:26:25;;;;;;;0.20;0.20;;;;;;;5.36;70.98;101229.53;5083866;28;20032;-83
2023/12/06 00:28:53;;;;;;;1.80;1.65;;;;;;;5.40;71.12;101236.56;5083906;28;20559;-83
2023/12/06 00:31:19;;;;;;;0.20;0.20;;;;;;;5.41;71.19;101237.44;5084716;28;20028;-81
2023/12/06 00:33:45;;;;;;;0.93;0.93;;;;;;;5.41;70.90;101238.34;5083908;28;20494;-82
2023/12/06 00:36:11;;;;;;;0.20;0.20;;;;;;;5.43;70.88;101252.38;5084910;28;20045;-82
2023/12/06 00:38:38;;;;;;;0.40;0.40;;;;;;;5.48;70.89;101252.38;5087973;28;20028;-84
2023/12/06 00:41:04;;;;;;;0.10;0.10;;;;;;;5.50;70.92;101264.66;5085431;28;20032;-83
2023/12/06 00:43:31;;;;;;;0.20;0.20;;;;;;;5.51;70.95;101257.69;5088197;28;20422;-82
2023/12/06 00:45:57;;;;;;;0.22;0.22;;;;;;;5.56;71.05;101260.31;5082058;28;20020;-84
2023/12/06 00:48:23;;;;;;;1.15;1.13;;;;;;;5.57;70.97;101264.72;5084567;28;20039;-83
2023/12/06 00:50:49;;;;;;;0.20;0.20;;;;;;;5.55;70.86;101264.72;5091242;28;20031;-83
2023/12/06 00:53:15;;;;;;;0.50;0.50;;;;;;;5.51;71.09;101263.81;5086078;28;20483;-83
2023/12/06 00:55:41;;;;;;;1.98;1.17;;;;;;;5.48;70.90;101265.53;5092297;28;20035;-83
2023/12/06 00:58:08;;;;;;;0.20;0.20;;;;;;;5.56;70.84;101262.94;5092166;28;20594;-83
2023/12/06 01:00:34;;;;;;;0.20;0.20;;;;;;;5.56;71.02;101274.38;5089422;28;20028;-82
2023/12/06 01:03:00;;;;;;;0.10;0.10;;;;;;;5.60;70.66;101270.88;5090715;28;20055;-83
2023/12/06 01:05:26;;;;;;;0.30;0.30;;;;;;;5.66;70.58;101286.69;5083688;28;20578;-83
2023/12/06 01:07:52;;;;;;;0.20;0.20;;;;;;;5.67;70.60;101277.09;5083710;28;20392;-84
2023/12/06 01:10:18;;;;;;;1.17;1.17;;;;;;;5.73;70.71;101276.22;5092635;28;20034;-83
2023/12/06 01:12:45;;;;;;;0.20;0.20;;;;;;;5.66;70.63;101281.44;5090056;28;20031;-83
2023/12/06 01:15:11;;;;;;;0.10;0.10;;;;;;;5.70;70.64;101277.09;5088873;28;20111;-83
2023/12/06 01:17:37;;;;;;;0.45;0.45;;;;;;;5.74;70.81;101284.13;5097948;28;20237;-83
2023/12/06 01:20:05;;;;;;;0.20;0.20;;;;;;;5.77;70.64;101293.78;5108375;28;20051;-84
2023/12/06 01:22:32;;;;;;;0.20;0.20;;;;;;;5.80;70.44;101289.41;5093643;28;20119;-84
2023/12/06 01:24:58;;;;;;;0.15;0.15;;;;;;;5.81;70.55;101292.94;5095311;28;20435;-84
2023/12/06 01:27:25;;;;;;;0.20;0.20;;;;;;;5.81;70.59;101296.44;5099208;28;20024;-84
2023/12/06 01:29:51;;;;;;;1.85;1.17;;;;;;;5.86;70.89;101293.84;5098486;28;20103;-84
2023/12/06 01:32:17;;;;;;;0.20;0.20;;;;;;;5.86;70.68;101295.59;5093246;28;20533;-84
2023/12/06 01:34:43;;;;;;;0.30;0.30;;;;;;;5.90;70.76;101289.50;5096990;28;20028;-84
2023/12/06 01:37:09;;;;;;;0.35;0.35;;;;;;;5.92;70.59;101298.25;5098810;28;20576;-83
2023/12/06 01:39:36;;;;;;;0.20;0.20;;;;;;;5.89;70.71;101300.88;5086509;28;20028;-83
2023/12/06 01:42:02;;;;;;;0.25;0.25;;;;;;;5.88;70.37;101297.38;5094306;28;20040;-82
2023/12/06 01:44:29;;;;;;;0.30;0.30;;;;;;;5.93;70.73;101305.28;5089991;28;20036;-83
2023/12/06 01:46:55;;;;;;;0.20;0.20;;;;;;;5.94;70.58;101302.69;5091287;28;20024;-83
2023/12/06 01:49:22;;;;;;;0.10;0.10;;;;;;;5.96;70.82;101306.19;5091220;28;20530;-83
2023/12/06 01:51:48;;;;;;;0.32;0.32;;;;;;;6.00;70.69;101307.13;5094181;28;20581;-84
2023/12/06 01:54:15;;;;;;;0.28;0.28;;;;;;;5.96;70.38;101313.22;5090926;28;20047;-83
2023/12/06 01:56:44;;;;;;;0.30;0.30;;;;;;;5.99;70.26;101315.88;5086950;28;20047;-83
2023/12/06 01:59:11;;;;;;;0.20;0.20;;;;;;;6.01;70.47;101314.16;5090366;28;20028;-84
2023/12/06 02:01:38;;;;;;;0.20;0.20;;;;;;;6.00;70.24;101322.91;5088207;28;20036;-84
2023/12/06 02:04:05;;;;;;;0.20;0.20;;;;;;;5.86;70.89;101319.25;5087748;28;20043;-85
2023/12/06 02:06:31;;;;;;;0.20;0.20;;;;;;;5.91;70.53;101325.47;5091269;28;20116;-83
2023/12/06 02:08:59;;;;;;;0.15;0.15;;;;;;;5.92;70.74;101335.09;5090756;28;20518;-82
2023/12/06 02:11:25;;;;;;;0.60;0.60;;;;;;;5.93;70.69;101340.38;5090460;28;20035;-82
2023/12/06 02:13:52;;;;;;;0.20;0.20;;;;;;;5.91;70.75;101339.47;5087775;28;20027;-84
2023/12/06 02:16:18;;;;;;;0.20;0.20;;;;;;;5.94;70.80;101343.88;5100454;28;20024;-83
2023/12/06 02:18:45;;;;;;;0.68;0.68;;;;;;;5.97;70.96;101349.16;5096759;28;20028;-84
2023/12/06 02:21:12;;;;;;;0.20;0.20;;;;;;;5.98;70.88;101340.38;5097336;28;20044;-84
2023/12/06 02:23:39;;;;;;;0.20;0.20;;;;;;;6.02;71.24;101350.13;5092580;28;20115;-84
2023/12/06 02:26:06;;;;;;;0.40;0.40;;;;;;;6.05;70.96;101350.13;5096488;28;20032;-84
2023/12/06 02:28:32;;;;;;;0.55;0.55;;;;;;;6.05;71.24;101347.50;5095044;28;20808;-84
2023/12/06 02:30:58;;;;;;;0.20;0.20;;;;;;;6.07;71.14;101344.84;5093011;28;20024;-85
2023/12/06 02:33:26;;;;;;;1.33;1.17;;;;;;;6.06;71.35;101344.00;5085098;28;20055;-84
2023/12/06 02:35:57;;;;;;;0.20;0.20;;;;;;;6.12;71.02;101349.28;5091585;28;20043;-84
2023/12/06 02:38:23;;;;;;;0.20;0.20;;;;;;;6.07;71.28;101348.38;5093256;28;20085;-84
2023/12/06 02:40:52;;;;;;;0.20;0.20;;;;;;;6.07;71.62;101350.13;5091803;28;20051;-84
2023/12/06 02:43:19;;;;;;;0.80;0.80;;;;;;;6.11;71.08;101351.94;5084595;28;20024;-85
2023/12/06 02:45:45;;;;;;;0.20;0.20;;;;;;;6.11;71.35;101354.56;5088830;28;20032;-85
2023/12/06 02:48:11;;;;;;;0.35;0.35;;;;;;;6.17;71.30;101356.31;5096499;28;20031;-85
2023/12/06 02:50:37;;;;;;;0.45;0.45;;;;;;;6.14;71.57;101346.66;5092150;28;20451;-84
2023/12/06 02:53:04;;;;;;;0.30;0.30;;;;;;;6.13;71.31;101345.81;5092680;28;20036;-84
2023/12/06 02:55:30;;;;;;;0.10;0.10;;;;;;;6.10;71.59;101339.63;5089940;28;20017;-84
2023/12/06 02:57:56;;;;;;;0.20;0.20;;;;;;;6.14;71.82;101341.41;5090563;28;20024;-85
2023/12/06 03:00:22;;;;;;;0.25;0.25;;;;;;;6.14;71.61;101342.31;5088742;28;20020;-85
2023/12/06 03:02:48;;;;;;;0.20;0.20;;;;;;;6.14;71.63;101344.03;5096130;28;20028;-84
2023/12/06 03:05:15;;;;;;;0.20;0.20;;;;;;;6.08;71.85;101339.63;5096989;28;20069;-84
2023/12/06 03:07:41;;;;;;;0.20;0.20;;;;;;;6.08;71.89;101339.63;5096931;28;20040;-83
2023/12/06 03:10:07;;;;;;;0.20;0.20;;;;;;;6.04;71.95;101345.72;5094264;28;20132;-83
2023/12/06 03:12:34;;;;;;;0.30;0.30;;;;;;;6.02;72.00;101346.59;5094836;28;20028;-83
2023/12/06 03:15:00;;;;;;;0.20;0.20;;;;;;;6.01;72.41;101344.81;5090839;28;20024;-84
2023/12/06 03:17:26;;;;;;;0.20;0.20;;;;;;;6.01;72.18;101352.72;5087599;28;20575;-85
2023/12/06 03:19:52;;;;;;;0.20;0.20;;;;;;;6.04;72.07;101350.13;5092325;28;20509;-84
2023/12/06 03:22:18;;;;;;;3.10;1.40;;;;;;;6.05;72.03;101351.88;5085975;28;20029;-85
2023/12/06 03:24:44;;;;;;;0.40;0.40;;;;;;;6.07;72.22;101350.13;5090657;28;20032;-84
2023/12/06 03:27:11;;;;;;;0.47;0.47;;;;;;;6.06;72.27;101362.41;5092671;28;20398;-84
2023/12/06 03:29:38;;;;;;;0.20;0.20;;;;;;;6.10;72.23;101352.78;5092411;28;20036;-84
2023/12/06 03:32:04;;;;;;;0.20;0.20;;;;;;;6.11;72.52;101352.78;5092694;28;20032;-84
2023/12/06 03:34:30;;;;;;;0.20;0.20;;;;;;;6.14;72.27;101351.94;5093399;28;20110;-84
2023/12/06 03:36:58;;;;;;;0.80;0.80;;;;;;;6.17;72.40;101362.50;5099400;28;20028;-84
2023/12/06 03:39:26;;;;;;;0.20;0.20;;;;;;;6.20;72.40;101359.00;5105945;28;20028;-84
2023/12/06 03:41:52;;;;;;;0.20;0.20;;;;;;;6.20;72.49;101356.38;5103492;28;20096;-84
2023/12/06 03:44:18;;;;;;;0.15;0.15;;;;;;;6.25;72.60;101362.53;5105150;28;20032;-83
2023/12/06 03:46:44;;;;;;;0.20;0.20;;;;;;;6.29;72.30;101366.94;5108484;28;20027;-83
2023/12/06 03:49:10;;;;;;;0.20;0.20;;;;;;;6.32;72.44;101364.34;5108238;28;20036;-83
2023/12/06 03:51:37;;;;;;;5.82;2.92;;;;;;;6.34;72.85;101372.22;5108186;28;20038;-84
2023/12/06 03:54:04;;;;;;;0.10;0.10;;;;;;;6.38;72.50;101380.16;5105928;28;20020;-84
2023/12/06 03:56:31;;;;;;;0.20;0.20;;;;;;;6.41;72.35;101381.94;5103786;28;20491;-83
2023/12/06 03:58:57;;;;;;;0.20;0.20;;;;;;;6.43;72.53;101383.69;5089857;28;21750;-84
2023/12/06 04:01:23;;;;;;;0.38;0.38;;;;;;;6.44;72.30;101374.94;5096320;28;20060;-84
2023/12/06 04:03:49;;;;;;;0.20;0.20;;;;;;;6.47;72.43;101371.44;5094008;28;20028;-84
2023/12/06 04:06:16;;;;;;;0.40;0.40;;;;;;;6.45;72.59;101376.66;5099312;28;20031;-84
2023/12/06 04:08:42;;;;;;;0.10;0.10;;;;;;;6.40;72.85;101383.66;5089287;28;20487;-83
2023/12/06 04:11:08;;;;;;;0.20;0.20;;;;;;;6.41;72.09;101387.19;5088677;28;20063;-84
2023/12/06 04:13:34;;;;;;;1.38;1.27;;;;;;;6.41;72.45;101388.06;5096665;28;20368;-84
2023/12/06 04:16:00;;;;;;;0.47;0.47;;;;;;;6.42;72.60;101395.09;5093280;28;20031;-83
2023/12/06 04:18:26;;;;;;;0.20;0.20;;;;;;;6.41;71.96;101398.59;5095061;28;20040;-83
2023/12/06 04:20:52;;;;;;;0.20;0.20;;;;;;;6.43;72.56;101395.97;5089784;28;20111;-84
2023/12/06 04:23:19;;;;;;;0.20;0.20;;;;;;;6.41;72.17;101403.84;5088247;28;20050;-84
2023/12/06 04:25:45;;;;;;;0.20;0.20;;;;;;;6.41;72.29;101397.72;5094671;28;20024;-83
2023/12/06 04:28:11;;;;;;;0.20;0.20;;;;;;;6.42;72.47;101395.09;5092570;28;20028;-84
2023/12/06 04:30:37;;;;;;;0.20;0.20;;;;;;;6.44;71.95;101398.63;5094992;28;20506;-83
2023/12/06 04:33:03;;;;;;;0.38;0.38;;;;;;;6.42;72.27;101395.09;5084212;28;20044;-83
2023/12/06 04:35:30;;;;;;;0.20;0.20;;;;;;;6.44;72.26;101393.38;5093854;28;20569;-83
2023/12/06 04:37:56;;;;;;;0.63;0.63;;;;;;;6.40;72.48;101399.47;5088941;28;20487;-83
2023/12/06 04:40:22;;;;;;;0.20;0.20;;;;;;;6.40;72.09;101394.19;5093621;28;20081;-83
2023/12/06 04:42:48;;;;;;;0.20;0.20;;;;;;;6.39;72.62;101392.47;5087930;28;20554;-83
2023/12/06 04:45:14;;;;;;;0.20;0.20;;;;;;;6.41;72.70;101398.59;5088049;28;20107;-83
2023/12/06 04:47:40;;;;;;;0.17;0.17;;;;;;;6.40;72.52;101396.81;5100627;28;20032;-83
2023/12/06 04:50:08;;;;;;;0.20;0.20;;;;;;;6.43;72.39;101402.13;5097123;28;20044;-83
2023/12/06 04:52:35;;;;;;;0.20;0.20;;;;;;;6.44;72.14;101400.38;5091669;28;20035;-83
2023/12/06 04:55:04;;;;;;;0.20;0.20;;;;;;;6.46;72.39;101402.13;5100039;28;20433;-84
2023/12/06 04:57:30;;;;;;;0.20;0.20;;;;;;;6.48;72.47;101410.94;5098446;28;20028;-84
2023/12/06 04:59:57;;;;;;;0.35;0.35;;;;;;;6.47;72.90;101409.16;5096103;28;20028;-84
2023/12/06 05:02:23;;;;;;;0.25;0.25;;;;;;;6.47;72.48;101414.44;5096219;28;20028;-84
2023/12/06 05:04:49;;;;;;;0.75;0.75;;;;;;;6.48;72.71;101421.47;5098232;28;20032;-84
2023/12/06 05:07:15;;;;;;;0.50;0.50;;;;;;;6.48;72.13;101426.72;5093650;28;20032;-84
2023/12/06 05:09:41;;;;;;;0.20;0.20;;;;;;;6.47;72.60;101430.22;5096465;28;20092;-84
2023/12/06 05:12:07;;;;;;;0.20;0.20;;;;;;;6.46;72.24;101427.59;5096475;28;20480;-83
2023/12/06 05:14:34;;;;;;;0.20;0.20;;;;;;;6.47;72.86;101432.84;5093954;28;20443;-84
2023/12/06 05:17:00;;;;;;;0.20;0.20;;;;;;;6.45;72.82;101431.09;5093427;28;20046;-83
2023/12/06 05:19:26;;;;;;;0.20;0.20;;;;;;;6.50;72.84;101428.50;5094470;28;20445;-83
2023/12/06 05:21:53;;;;;;;0.20;0.20;;;;;;;6.50;72.68;101439.03;5088484;28;20119;-83
2023/12/06 05:24:20;;;;;;;0.20;0.20;;;;;;;6.53;72.65;101437.28;5093071;28;20398;-83
2023/12/06 05:26:46;;;;;;;0.20;0.20;;;;;;;6.53;72.31;101439.94;5088678;28;20494;-84
2023/12/06 05:29:13;;;;;;;0.20;0.20;;;;;;;6.53;73.06;101439.03;5092151;28;20077;-83
2023/12/06 05:31:40;;;;;;;0.10;0.10;;;;;;;6.57;72.63;101438.19;5093121;28;20404;-83
2023/12/06 05:34:07;;;;;;;0.52;0.52;;;;;;;6.57;72.29;101431.16;5087668;28;20035;-83
2023/12/06 05:36:33;;;;;;;0.20;0.20;;;;;;;6.61;72.53;101439.97;5092580;28;20027;-83
2023/12/06 05:38:59;;;;;;;0.13;0.13;;;;;;;6.57;72.43;101446.97;5093803;28;20563;-83
2023/12/06 05:41:25;;;;;;;0.20;0.20;;;;;;;6.61;72.40;101453.13;5090987;28;20034;-86
2023/12/06 05:43:52;;;;;;;0.55;0.55;;;;;;;6.63;72.75;101448.75;5091284;28;20082;-84
2023/12/06 05:46:18;;;;;;;0.28;0.28;;;;;;;6.65;72.71;101449.63;5098568;28;20032;-84
2023/12/06 05:48:44;;;;;;;0.20;0.20;;;;;;;6.64;72.71;101450.50;5097782;28;20069;-83
2023/12/06 05:51:10;;;;;;;0.20;0.20;;;;;;;6.66;71.99;101443.50;5092531;28;20111;-83
2023/12/06 05:53:38;;;;;;;0.20;0.20;;;;;;;6.66;72.09;101448.78;5095670;28;20030;-83
2023/12/06 05:56:06;;;;;;;0.20;0.20;;;;;;;6.65;72.54;101449.63;5093486;28;20032;-82
2023/12/06 05:58:32;;;;;;;0.30;0.30;;;;;;;6.66;72.01;101450.53;5090246;28;20029;-84
2023/12/06 06:01:00;;;;;;;0.20;0.20;;;;;;;6.66;71.92;101461.94;5088206;28;20510;-84
2023/12/06 06:03:26;;;;;;;0.20;0.20;;;;;;;6.61;72.09;101461.91;5090152;28;20380;-83
2023/12/06 06:05:52;;;;;;;0.20;0.20;;;;;;;6.54;71.49;101467.13;5086195;28;20116;-83
2023/12/06 06:08:18;;;;;;;0.38;0.25;;;;;;;6.47;71.33;101464.44;5092768;28;20032;-84
2023/12/06 06:10:44;;;;;;;0.20;0.20;;;;;;;6.42;71.08;101468.81;5089686;28;20407;-84
2023/12/06 06:13:11;;;;;;;0.50;0.50;;;;;;;6.36;71.40;101463.50;5087910;28;20028;-82
2023/12/06 06:15:37;;;;;;;0.20;0.20;;;;;;;6.32;71.32;101467.84;5090427;28;20024;-84
2023/12/06 06:18:05;;;;;;;1.30;1.30;;;;;;;6.26;70.97;101469.56;5097091;28;20066;-83
2023/12/06 06:20:33;;;;;;;0.10;0.10;;;;;;;6.22;70.90;101471.28;5095661;28;20539;-83
2023/12/06 06:23:00;;;;;;;0.43;0.43;;;;;;;6.15;70.38;101470.34;5093284;28;20024;-83
2023/12/06 06:25:26;;;;;;;1.27;1.27;;;;;;;6.09;70.69;101464.16;5093520;28;20122;-84
2023/12/06 06:27:52;;;;;;;0.95;0.95;;;;;;;6.04;70.38;101472.00;5093192;28;20081;-84
2023/12/06 06:30:18;;;;;;;0.20;0.20;;;;;;;5.98;70.25;101474.53;5101082;28;20109;-84
2023/12/06 06:32:44;;;;;;;0.20;0.20;;;;;;;5.94;70.35;101467.50;5104170;28;20020;-84
2023/12/06 06:35:10;;;;;;;0.20;0.20;;;;;;;5.90;70.28;101468.34;5098095;28;20028;-84
2023/12/06 06:37:37;;;;;;;0.20;0.20;;;;;;;5.88;70.02;101464.81;5098278;28;20483;-83
2023/12/06 06:40:07;;;;;;;0.20;0.20;;;;;;;5.83;70.07;101468.28;5097570;28;20100;-83
2023/12/06 06:42:33;;;;;;;0.30;0.30;;;;;;;5.76;69.74;101471.72;5096259;28;20016;-83
2023/12/06 06:44:59;;;;;;;0.13;0.13;;;;;;;5.71;69.79;101472.53;5089083;28;20024;-82
2023/12/06 06:47:27;;;;;;;1.10;1.02;;;;;;;5.68;69.53;101478.63;5099670;28;20039;-83
2023/12/06 06:49:54;;;;;;;0.20;0.20;;;;;;;5.62;69.54;101479.47;5097712;28;20384;-81
2023/12/06 06:52:20;;;;;;;0.22;0.22;;;;;;;5.62;69.35;101486.44;5091599;28;20031;-82
2023/12/06 06:54:46;;;;;;;0.17;0.17;;;;;;;5.59;69.29;101494.31;5085813;28;20103;-83
2023/12/06 06:57:13;;;;;;;0.57;0.57;;;;;;;5.49;68.66;101496.81;5089992;28;20047;-82
2023/12/06 06:59:39;;;;;;;0.30;0.30;;;;;;;5.47;68.73;101498.56;5094432;28;20073;-82
2023/12/06 07:02:05;;;;;;;0.30;0.30;;;;;;;5.39;68.35;101501.97;5088608;28;20036;-84
2023/12/06 07:04:31;;;;;;;0.22;0.22;;;;;;;5.42;68.40;101502.00;5092361;28;20399;-81
2023/12/06 07:06:58;;;;;;;0.85;0.85;;;;;;;5.42;68.86;101502.00;5092075;28;20039;-83
2023/12/06 07:09:24;;;;;;;0.20;0.20;;;;;;;5.38;68.36;101511.59;5088136;28;20032;-82
2023/12/06 07:11:50;;;;;;;0.20;0.20;;;;;;;5.29;69.16;101517.63;5089357;28;20056;-82
2023/12/06 07:14:17;;;;;;;0.40;0.40;;;;;;;5.26;69.02;101509.72;5090551;28;20055;-82
2023/12/06 07:16:43;;;;;;;0.20;0.20;;;;;;;5.34;68.96;101520.31;5091230;28;20054;-82
2023/12/06 07:19:10;;;;;;;0.47;0.47;;;;;;;5.31;68.10;101522.91;5104320;28;20548;-81
2023/12/06 07:21:36;;;;;;;0.60;0.60;;;;;;;5.26;67.71;101527.19;5097172;28;20045;-82
2023/12/06 07:24:03;;;;;;;0.20;0.20;;;;;;;5.28;68.44;101529.00;5090800;28;20039;-82
2023/12/06 07:26:29;;;;;;;0.20;0.20;;;;;;;5.29;67.79;101522.00;5091120;28;20037;-83
2023/12/06 07:28:55;;;;;;;0.20;0.20;;;;;;;5.29;67.80;101524.63;5096515;28;20024;-84
2023/12/06 07:31:21;;;;;;;0.30;0.30;;;;;;;5.24;67.31;101535.06;5088117;28;20105;-83
2023/12/06 07:33:50;;;;;;;0.20;0.20;;;;;;;5.23;67.50;101533.28;5089503;28;20036;-82
2023/12/06 07:36:17;;;;;;;0.40;0.40;;;;;;;5.17;67.37;101535.84;5097002;28;20026;-82
2023/12/06 07:38:43;;;;;;;0.20;0.20;;;;;;;5.18;67.51;101541.16;5082962;28;20062;-81
2023/12/06 07:41:10;;;;;;;0.20;0.20;;;;;;;5.18;67.67;101546.41;5088201;28;20040;-84
2023/12/06 07:43:36;;;;;;;0.20;0.20;;;;;;;5.16;67.80;101548.09;5093379;28;20038;-81
2023/12/06 07:46:03;;;;;;;0.30;0.30;;;;;;;5.13;67.46;101548.06;5096899;28;20032;-81
2023/12/06 07:48:29;;;;;;;0.32;0.32;;;;;;;5.13;67.56;101545.44;5096312;28;20071;-81
2023/12/06 07:50:57;;;;;;;1.85;1.30;;;;;;;5.09;67.64;101546.25;5092242;28;20032;-82
2023/12/06 07:53:23;;;;;;;0.20;0.20;;;;;;;5.10;67.76;101548.03;5095526;28;20395;-82
2023/12/06 07:55:50;;;;;;;0.20;0.20;;;;;;;5.11;67.63;101559.41;5096774;28;20024;-82
2023/12/06 07:58:17;;;;;;;0.20;0.20;;;;;;;5.12;67.79;101555.91;5096904;28;20464;-82
2023/12/06 08:00:43;;;;;;;0.30;0.30;;;;;;;5.12;67.68;101555.91;5097887;28;20032;-83
2023/12/06 08:03:09;;;;;;;0.20;0.20;;;;;;;5.13;67.75;101560.31;5096814;28;20028;-83
2023/12/06 08:05:37;;;;;;;0.20;0.20;;;;;;;5.13;67.74;101568.19;5094605;28;20021;-84
2023/12/06 08:08:04;;;;;;;0.20;0.20;;;;;;;5.13;67.88;101563.81;5095376;28;20035;-84
2023/12/06 08:10:33;;;;;;;0.20;0.20;;;;;;;5.13;67.77;101569.06;5095061;28;20059;-84
2023/12/06 08:12:59;;;;;;;0.20;0.20;;;;;;;5.14;67.92;101570.84;5095854;28;20043;-82
2023/12/06 08:15:27;;;;;;;0.10;0.10;;;;;;;5.17;67.78;101570.91;5092363;28;20037;-83
2023/12/06 08:17:53;;;;;;;0.20;0.20;;;;;;;5.17;67.58;101570.00;5094416;28;20027;-83
2023/12/06 08:20:20;;;;;;;0.20;0.20;;;;;;;5.21;67.75;101576.19;5092564;28;20528;-83
2023/12/06 08:22:46;;;;;;;1.75;1.65;;;;;;;5.25;67.62;101575.38;5097026;28;20114;-84
2023/12/06 08:25:12;;;;;;;0.20;0.20;;;;;;;5.28;67.75;101585.91;5097762;28;20024;-83
2023/12/06 08:27:38;;;;;;;0.20;0.20;;;;;;;5.27;67.70;101577.16;5097247;28;20035;-81
2023/12/06 08:30:06;;;;;;;0.20;0.20;;;;;;;5.31;67.82;101578.97;5098539;28;20031;-82
2023/12/06 08:32:32;;;;;;;0.13;0.13;;;;;;;5.35;67.96;101574.63;5090857;28;20095;-85
2023/12/06 08:35:01;;;;;;;0.20;0.20;;;;;;;5.38;68.01;101574.66;5104740;28;20028;-83
2023/12/06 08:37:27;;;;;;;0.20;0.20;;;;;;;5.39;67.64;101586.94;5095039;28;20024;-83
2023/12/06 08:39:53;;;;;;;3.85;2.38;;;;;;;5.42;67.42;101586.09;5108055;28;20024;-81
2023/12/06 08:42:19;;;;;;;0.20;0.20;;;;;;;5.43;68.07;101588.78;5106495;28;20032;-82
2023/12/06 08:44:45;;;;;;;0.20;0.20;;;;;;;5.44;67.55;101590.50;5107773;28;20031;-82
2023/12/06 08:47:12;;;;;;;0.20;0.20;;;;;;;5.50;67.79;101590.59;5112621;28;20034;-82
2023/12/06 08:49:39;;;;;;;0.20;0.20;;;;;;;5.54;67.74;101595.91;5113618;28;20024;-83
2023/12/06 08:52:07;;;;;;;0.20;0.20;;;;;;;5.62;67.79;101595.13;5109353;28;20048;-81
2023/12/06 08:54:34;;;;;;;0.20;0.20;;;;;;;5.61;67.15;101603.00;5107401;28;20063;-82
2023/12/06 08:57:01;;;;;;;0.95;0.95;;;;;;;5.72;67.73;101603.13;5106458;28;20555;-83
2023/12/06 08:59:27;;;;;;;0.60;0.60;;;;;;;5.80;67.41;101604.97;5102191;28;20020;-83
2023/12/06 09:01:53;;;;;;;0.82;0.82;;;;;;;5.89;67.42;101600.72;5103181;28;20020;-84
2023/12/06 09:04:20;;;;;;;0.17;0.17;;;;;;;5.97;67.54;101612.22;5104150;28;20040;-86
2023/12/06 09:06:46;;;;;;;0.20;0.20;;;;;;;6.09;67.53;101604.50;5107474;28;20028;-85
2023/12/06 09:09:15;;;;;;;0.10;0.10;;;;;;;6.22;68.03;101608.13;5107484;28;20080;-86
2023/12/06 09:11:41;;;;;;;0.20;0.20;;;;;;;6.30;67.90;101602.94;5104835;28;20395;-85
2023/12/06 09:14:07;;;;;;;0.20;0.20;;;;;;;6.40;67.38;101603.91;5102801;28;20047;-84
2023/12/06 09:16:34;;;;;;;0.30;0.30;;;;;;;6.50;67.48;101604.88;5103507;28;20032;-85
2023/12/06 09:19:00;;;;;;;0.65;0.65;;;;;;;6.57;67.35;101602.31;5100866;28;20031;-85
2023/12/06 09:21:27;;;;;;;0.43;0.43;;;;;;;6.66;67.38;101606.78;5097305;28;20107;-83
2023/12/06 09:23:53;;;;;;;0.20;0.20;;;;;;;6.71;67.33;101599.78;5099410;28;20048;-84
2023/12/06 09:26:20;;;;;;;0.20;0.20;;;;;;;6.76;67.53;101603.34;5100169;28;20024;-80
2023/12/06 09:28:46;;;;;;;0.10;0.10;;;;;;;6.79;66.30;101611.28;5097111;28;20085;-79
2023/12/06 09:31:12;;;;;;;0.20;0.20;;;;;;;6.89;68.76;101611.34;5097356;28;20028;-79
2023/12/06 09:33:39;;;;;;;0.20;0.20;;;;;;;6.91;67.21;101620.13;5095763;28;20035;-80
2023/12/06 09:36:05;;;;;;;0.35;0.35;;;;;;;6.92;66.41;101617.50;5095635;28;20032;-78
2023/12/06 09:38:32;;;;;;;0.10;0.10;;;;;;;7.00;66.61;101620.19;5095829;28;20055;-79
2023/12/06 09:40:58;;;;;;;0.20;0.20;;;;;;;7.02;66.21;101618.47;5097555;28;20032;-81
2023/12/06 09:43:24;;;;;;;0.77;0.77;;;;;;;7.07;66.28;101621.13;5096026;28;20558;-79
2023/12/06 09:45:52;;;;;;;0.73;0.73;;;;;;;7.10;65.71;101627.31;5095467;28;20029;-76
2023/12/06 09:48:18;;;;;;;0.82;0.82;;;;;;;7.15;65.47;101634.38;5095443;28;20024;-79
2023/12/06 09:50:44;;;;;;;0.20;0.20;;;;;;;7.20;66.90;101628.28;5095715;28;20158;-80
2023/12/06 09:53:11;;;;;;;0.20;0.20;;;;;;;7.22;66.52;101631.78;5095219;28;20032;-78
2023/12/06 09:55:37;;;;;;;0.10;0.10;;;;;;;7.29;66.57;101632.72;5100843;28;20020;-80
2023/12/06 09:58:03;;;;;;;0.20;0.20;;;;;;;7.33;67.62;101629.22;5103112;28;20031;-79
2023/12/06 10:00:30;;;;;;;0.20;0.20;;;;;;;7.35;66.51;101637.13;5100493;28;20392;-78
2023/12/06 10:02:57;;;;;;;0.30;0.30;;;;;;;7.35;66.62;101638.03;5094612;28;20110;-78
2023/12/06 10:05:24;;;;;;;0.10;0.10;;;;;;;7.39;66.93;101639.81;5096132;28;20040;-81
2023/12/06 10:07:50;;;;;;;0.20;0.20;;;;;;;7.42;66.49;101645.06;5097699;28;20032;-81
2023/12/06 10:10:18;;;;;;;2.80;0.90;;;;;;;7.51;66.99;101653.91;5096124;28;20028;-78
2023/12/06 10:12:52;;;;;;;0.45;0.45;;;;;;;7.53;65.79;101657.47;5091887;28;20020;-78
2023/12/06 10:15:19;;;;;;;1.35;1.27;;;;;;;7.63;67.10;101663.63;5093717;28;20051;-79
2023/12/06 10:17:46;;;;;;;0.98;0.82;;;;;;;7.61;66.09;101671.56;5088235;28;20024;-80
2023/12/06 10:20:13;;;;;;;0.20;0.20;;;;;;;7.67;66.74;101650.50;5090048;28;20036;-80
2023/12/06 10:22:40;;;;;;;0.55;0.55;;;;;;;7.67;66.71;101655.75;5085289;28;20391;-79
2023/12/06 10:25:08;;;;;;;0.20;0.20;;;;;;;7.68;66.40;101646.97;5088703;28;20440;-79
2023/12/06 10:27:35;;;;;;;0.20;0.20;;;;;;;7.70;66.66;101650.53;5090241;28;20376;-80
2023/12/06 10:30:04;;;;;;;0.40;0.40;;;;;;;7.71;66.75;101654.03;5083805;28;20560;-80
2023/12/06 10:32:32;;;;;;;0.30;0.30;;;;;;;7.75;66.96;101643.50;5084505;28;20095;-81
2023/12/06 10:35:00;;;;;;;0.40;0.40;;;;;;;7.75;66.47;101647.88;5090337;28;20023;-83
2023/12/06 10:37:28;;;;;;;0.20;0.20;;;;;;;7.75;65.92;101648.78;5087888;28;20024;-82
2023/12/06 10:40:00;;;;;;;0.10;0.10;;;;;;;7.83;66.54;101648.81;5087616;28;20394;-80
2023/12/06 10:42:34;;;;;;;1.50;1.40;;;;;;;7.92;66.75;101648.88;5086997;28;20048;-79
2023/12/06 10:45:03;;;;;;;0.55;0.55;;;;;;;7.97;66.97;101643.59;5093370;28;20021;-81
2023/12/06 10:47:31;;;;;;;0.10;0.10;;;;;;;8.05;67.70;101644.50;5093707;28;20049;-80
2023/12/06 10:49:59;;;;;;;0.55;0.55;;;;;;;8.17;68.03;101646.28;5095862;28;20039;-78
2023/12/06 10:52:28;;;;;;;0.20;0.20;;;;;;;8.25;67.32;101644.56;5092451;28;20031;-78
2023/12/06 10:54:55;;;;;;;0.80;0.65;;;;;;;8.34;67.43;101640.19;5094629;28;20031;-83
2023/12/06 10:57:23;;;;;;;3.30;0.73;;;;;;;8.35;66.92;101632.25;5085547;28;20107;-82
2023/12/06 10:59:51;;;;;;;0.20;0.20;;;;;;;8.34;66.48;101632.25;5092254;28;20031;-79
2023/12/06 11:02:18;;;;;;;0.13;0.13;;;;;;;8.33;66.94;101647.19;5080066;28;20020;-79
2023/12/06 11:04:53;;;;;;;0.20;0.20;;;;;;;8.29;65.96;101637.53;5095675;28;20028;-83
2023/12/06 11:12:54;;;;;;;0.20;0.20;;;;;;;8.41;65.98;101629.63;5089376;27;1338184;-85
2023/12/06 11:15:33;;;;;;;0.63;0.63;;;;;;;8.52;65.37;101634.97;5129622;28;20039;-83
2023/12/06 11:20:41;;;;;;;0.20;0.20;;;;;;;8.67;65.20;101620.88;5134988;27;20812;-81
2023/12/06 11:23:09;;;;;;;1.08;1.08;;;;;;;8.82;65.06;101624.41;5110134;28;20020;-83
2023/12/06 11:25:42;;;;;;;0.55;0.55;;;;;;;9.03;64.63;101623.50;5112307;28;20030;-81
2023/12/06 11:28:12;;;;;;;;;;;;;;;9.32;64.50;101617.28;5097920;28;20452;-81
2023/12/06 11:30:55;;;;;;;0.20;0.20;;;;;;;9.44;64.26;101626.97;5091446;28;19912;-81
2023/12/06 11:33:22;;;;;;;0.10;0.10;;;;;;;9.49;64.25;101619.88;5083412;28;20544;-84
2023/12/06 11:35:53;;;;;;;0.10;0.10;;;;;;;9.61;65.18;101642.75;5078896;28;20526;-83
2023/12/06 11:38:19;;;;;;;0.60;0.60;;;;;;;9.14;63.92;101652.59;5079774;28;20115;-82
2023/12/06 11:40:50;;;;;;;0.20;0.20;;;;;;;8.83;64.08;101673.72;5086034;28;20119;-83